createdAt,value
2022-12-08T00:01:33.659Z,87.59
2022-12-08T00:04:03.396Z,87.62
2022-12-08T00:06:53.871Z,88.16
2022-12-08T00:09:32.087Z,88.15
2022-12-08T00:12:11.674Z,88.10
2022-12-08T00:14:43.195Z,88.66
2022-12-08T00:17:13.571Z,88.14
2022-12-08T00:19:42.921Z,88.32
2022-12-08T00:22:12.463Z,88.20
2022-12-08T00:24:44.157Z,88.50
2022-12-08T00:27:14.180Z,88.17
2022-12-08T00:29:44.810Z,88.51
2022-12-08T00:32:12.665Z,88.56
2022-12-08T00:34:40.323Z,88.74
2022-12-08T00:37:07.660Z,88.36
2022-12-08T00:39:35.359Z,88.75
2022-12-08T00:42:14.427Z,88.34
2022-12-08T00:44:45.050Z,88.31
2022-12-08T00:47:14.361Z,87.57
2022-12-08T00:49:42.633Z,88.60
2022-12-08T00:52:09.910Z,88.90
2022-12-08T00:54:37.643Z,88.75
2022-12-08T00:57:05.038Z,88.70
2022-12-08T00:59:32.673Z,88.94
2022-12-08T01:02:00.237Z,88.86
2022-12-08T01:04:27.850Z,88.51
2022-12-08T01:06:55.374Z,88.68
2022-12-08T01:09:22.918Z,88.02
2022-12-08T01:11:50.503Z,88.51
2022-12-08T01:14:18.138Z,88.58
2022-12-08T01:16:45.786Z,88.66
2022-12-08T01:19:16.206Z,88.19
2022-12-08T01:21:44.918Z,87.91
2022-12-08T01:24:19.199Z,88.07
2022-12-08T01:26:48.191Z,87.95
2022-12-08T01:29:16.210Z,88.46
2022-12-08T01:31:43.881Z,87.86
2022-12-08T01:34:12.814Z,87.96
2022-12-08T01:36:40.572Z,87.59
2022-12-08T01:39:16.116Z,87.78
2022-12-08T01:41:45.402Z,87.78
2022-12-08T01:44:12.862Z,87.60
2022-12-08T01:46:43.735Z,87.86
2022-12-08T01:49:20.093Z,88.66
2022-12-08T01:52:09.697Z,88.84
2022-12-08T01:55:02.428Z,88.38
2022-12-08T01:57:58.832Z,88.32
2022-12-08T02:00:26.695Z,88.05
2022-12-08T02:03:09.212Z,88.54
2022-12-08T02:05:39.975Z,88.97
2022-12-08T02:08:11.404Z,88.48
2022-12-08T02:10:42.204Z,88.21
2022-12-08T02:13:15.655Z,88.36
2022-12-08T02:16:11.464Z,88.63
2022-12-08T02:19:30.185Z,89.13
2022-12-08T02:22:03.710Z,89.03
2022-12-08T02:24:48.387Z,88.34
2022-12-08T02:27:50.242Z,88.18
2022-12-08T02:30:22.939Z,88.44
2022-12-08T02:33:25.693Z,88.62
2022-12-08T02:36:21.457Z,88.70
2022-12-08T02:39:10.192Z,88.37
2022-12-08T02:41:56.563Z,88.91
2022-12-08T02:44:43.938Z,89.18
2022-12-08T02:47:18.334Z,89.46
2022-12-08T02:49:46.198Z,89.72
2022-12-08T02:52:13.383Z,89.22
2022-12-08T02:54:50.200Z,89.55
2022-12-08T02:57:40.409Z,89.87
2022-12-08T03:00:17.178Z,89.52
2022-12-08T03:03:14.347Z,89.40
2022-12-08T03:06:15.265Z,88.68
2022-12-08T03:08:57.350Z,88.57
2022-12-08T03:12:06.162Z,89.24
2022-12-08T03:14:36.795Z,89.42
2022-12-08T03:17:05.745Z,89.53
2022-12-08T03:19:42.017Z,89.67
2022-12-08T03:22:12.175Z,89.94
2022-12-08T03:24:44.786Z,90.18
2022-12-08T03:27:21.059Z,90.55
2022-12-08T03:29:52.208Z,90.48
2022-12-08T03:32:50.431Z,90.26
2022-12-08T03:35:24.671Z,90.53
2022-12-08T03:37:52.275Z,89.76
2022-12-08T03:40:20.872Z,89.49
2022-12-08T03:42:48.429Z,89.79
2022-12-08T03:45:15.728Z,89.14
2022-12-08T03:47:43.750Z,89.25
2022-12-08T03:50:11.791Z,89.69
2022-12-08T03:52:39.328Z,90.17
2022-12-08T03:55:07.498Z,90.33
2022-12-08T03:57:35.192Z,89.45
2022-12-08T04:00:05.400Z,89.79
2022-12-08T04:02:33.077Z,89.68
2022-12-08T04:05:00.402Z,89.77
2022-12-08T04:07:27.852Z,89.29
2022-12-08T04:09:55.075Z,89.89
2022-12-08T04:12:22.576Z,89.88
2022-12-08T04:14:49.808Z,89.50
2022-12-08T04:17:17.277Z,89.62
2022-12-08T04:19:44.626Z,89.37
2022-12-08T04:22:12.100Z,89.80
2022-12-08T04:24:39.309Z,89.53
2022-12-08T04:27:06.850Z,89.43
2022-12-08T04:29:34.063Z,89.35
2022-12-08T04:32:01.620Z,89.48
2022-12-08T04:34:28.809Z,89.33
2022-12-08T04:36:56.312Z,89.83
2022-12-08T04:39:23.610Z,89.74
2022-12-08T04:41:51.171Z,89.96
2022-12-08T04:44:18.515Z,90.05
2022-12-08T04:46:46.057Z,90.07
2022-12-08T04:49:13.425Z,90.02
2022-12-08T04:51:40.926Z,90.09
2022-12-08T04:54:08.114Z,90.29
2022-12-08T04:56:35.658Z,89.98
2022-12-08T04:59:03.568Z,90.37
2022-12-08T05:01:31.138Z,90.18
2022-12-08T05:03:58.421Z,90.09
2022-12-08T05:06:26.040Z,90.05
2022-12-08T05:08:53.289Z,90.24
2022-12-08T05:11:20.901Z,89.59
2022-12-08T05:13:48.280Z,89.80
2022-12-08T05:16:16.891Z,89.36
2022-12-08T05:18:44.369Z,89.69
2022-12-08T05:21:12.459Z,89.35
2022-12-08T05:23:39.708Z,89.55
2022-12-08T05:26:07.493Z,89.43
2022-12-08T05:28:43.384Z,89.19
2022-12-08T05:31:14.743Z,89.49
2022-12-08T05:33:43.144Z,88.76
2022-12-08T05:36:14.646Z,89.39
2022-12-08T05:38:42.764Z,89.74
2022-12-08T05:41:20.123Z,90.17
2022-12-08T05:43:48.283Z,90.00
2022-12-08T05:46:17.388Z,90.02
2022-12-08T05:48:44.829Z,90.18
2022-12-08T05:51:20.611Z,89.38
2022-12-08T05:53:50.260Z,89.70
2022-12-08T05:56:18.645Z,90.14
2022-12-08T05:58:46.316Z,89.64
2022-12-08T06:01:31.782Z,89.73
2022-12-08T06:04:03.311Z,89.62
2022-12-08T06:06:36.324Z,90.15
2022-12-08T06:09:05.853Z,90.07
2022-12-08T06:11:33.932Z,90.42
2022-12-08T06:14:03.291Z,90.41
2022-12-08T06:16:31.408Z,90.38
2022-12-08T06:18:58.877Z,90.49
2022-12-08T06:21:26.489Z,90.87
2022-12-08T06:23:55.203Z,90.68
2022-12-08T06:26:23.174Z,90.17
2022-12-08T06:28:51.264Z,89.43
2022-12-08T06:31:25.907Z,89.93
2022-12-08T06:33:55.238Z,90.36
2022-12-08T06:36:27.907Z,89.91
2022-12-08T06:38:56.197Z,90.29
2022-12-08T06:41:23.927Z,90.29
2022-12-08T06:43:51.445Z,89.73
2022-12-08T06:46:20.877Z,88.61
2022-12-08T06:48:50.661Z,87.74
2022-12-08T06:51:23.497Z,87.67
2022-12-08T06:53:50.971Z,88.06
2022-12-08T06:56:20.207Z,87.22
2022-12-08T06:58:52.343Z,86.88
2022-12-08T07:01:20.844Z,86.62
2022-12-08T07:03:48.483Z,86.26
2022-12-08T07:06:21.648Z,86.35
2022-12-08T07:08:48.935Z,85.96
2022-12-08T07:11:21.554Z,85.40
2022-12-08T07:13:50.633Z,85.06
2022-12-08T07:16:18.654Z,84.69
2022-12-08T07:18:46.059Z,84.40
2022-12-08T07:21:15.138Z,83.37
2022-12-08T07:23:45.831Z,83.29
2022-12-08T07:26:13.711Z,82.82
2022-12-08T07:28:42.781Z,83.25
2022-12-08T07:31:22.812Z,82.99
2022-12-08T07:33:51.629Z,82.15
2022-12-08T07:36:19.708Z,80.99
2022-12-08T07:38:47.962Z,79.60
2022-12-08T07:41:23.658Z,79.47
2022-12-08T07:43:53.596Z,78.20
2022-12-08T07:46:25.041Z,78.83
2022-12-08T07:48:57.117Z,78.37
2022-12-08T07:51:25.397Z,78.66
2022-12-08T07:53:54.893Z,78.71
2022-12-08T07:56:23.790Z,78.79
2022-12-08T07:58:51.274Z,78.98
2022-12-08T08:01:31.309Z,78.61
2022-12-08T08:04:02.134Z,78.77
2022-12-08T08:06:30.664Z,78.93
2022-12-08T08:08:57.971Z,78.34
2022-12-08T08:11:25.732Z,78.03
2022-12-08T08:13:53.440Z,77.57
2022-12-08T08:16:21.528Z,77.70
2022-12-08T08:18:51.016Z,77.79
2022-12-08T08:24:08.506Z,77.07
2022-12-08T08:26:37.680Z,77.31
2022-12-08T08:29:05.013Z,77.48
2022-12-08T08:31:32.675Z,76.54
2022-12-08T08:34:05.089Z,76.07
2022-12-08T08:36:33.175Z,75.26
2022-12-08T08:39:00.459Z,74.81
2022-12-08T08:41:27.968Z,75.01
2022-12-08T08:43:55.872Z,73.51
2022-12-08T08:46:23.507Z,72.94
2022-12-08T08:48:50.787Z,70.54
2022-12-08T08:51:18.286Z,67.84
2022-12-08T08:53:45.814Z,63.09
2022-12-08T08:56:16.813Z,62.16
2022-12-08T08:58:44.062Z,57.39
2022-12-08T09:01:21.614Z,54.68
2022-12-08T09:03:49.544Z,49.34
2022-12-08T09:06:17.629Z,47.63
2022-12-08T09:08:46.594Z,49.78
2022-12-08T09:11:14.384Z,51.97
2022-12-08T09:13:42.252Z,53.47
2022-12-08T09:16:12.248Z,55.12
2022-12-08T09:18:39.644Z,55.81
2022-12-08T09:21:13.203Z,56.21
2022-12-08T09:23:40.687Z,55.36
2022-12-08T09:26:08.719Z,57.26
2022-12-08T09:28:36.225Z,58.67
2022-12-08T09:31:04.265Z,61.09
2022-12-08T09:33:31.689Z,62.19
2022-12-08T09:36:04.164Z,63.14
2022-12-08T09:38:31.753Z,63.06
2022-12-08T09:41:02.523Z,62.63
2022-12-08T09:44:02.778Z,61.06
2022-12-08T09:46:34.657Z,62.57
2022-12-08T09:49:04.827Z,62.46
2022-12-08T09:51:41.766Z,61.34
2022-12-08T09:54:35.675Z,59.53
2022-12-08T09:57:13.875Z,58.74
2022-12-08T09:59:47.851Z,55.35
2022-12-08T10:02:26.003Z,54.34
2022-12-08T10:04:57.672Z,55.52
2022-12-08T10:07:49.453Z,58.61
2022-12-08T10:10:46.871Z,60.25
2022-12-08T10:13:53.328Z,61.30
2022-12-08T10:16:33.068Z,63.05
2022-12-08T10:19:25.406Z,63.25
2022-12-08T10:21:54.336Z,64.03
2022-12-08T10:24:54.576Z,65.15
2022-12-08T10:27:22.704Z,64.33
2022-12-08T10:29:50.269Z,66.17
2022-12-08T10:32:22.285Z,65.56
2022-12-08T10:35:12.895Z,65.89
2022-12-08T10:37:40.399Z,65.30
2022-12-08T10:40:17.962Z,65.95
2022-12-08T10:42:53.556Z,67.02
2022-12-08T10:45:44.228Z,66.90
2022-12-08T10:48:30.760Z,67.46
2022-12-08T10:51:00.690Z,66.62
2022-12-08T10:53:34.043Z,67.27
2022-12-08T10:56:04.572Z,67.99
2022-12-08T10:58:42.618Z,68.23
2022-12-08T11:01:28.205Z,68.33
2022-12-08T11:03:58.857Z,68.94
2022-12-08T11:06:39.352Z,69.38
2022-12-08T11:09:18.656Z,70.03
2022-12-08T11:11:51.826Z,69.49
2022-12-08T11:14:31.966Z,69.46
2022-12-08T11:17:18.082Z,70.35
2022-12-08T11:19:57.072Z,70.40
2022-12-08T11:22:44.869Z,70.20
2022-12-08T11:25:27.344Z,70.77
2022-12-08T11:28:01.430Z,71.28
2022-12-08T11:30:38.315Z,72.00
2022-12-08T11:33:27.847Z,72.72
2022-12-08T11:36:11.540Z,72.82
2022-12-08T11:38:47.721Z,73.25
2022-12-08T11:41:22.908Z,73.14
2022-12-08T11:44:11.463Z,73.92
2022-12-08T11:46:53.088Z,73.60
2022-12-08T11:49:20.829Z,74.43
2022-12-08T11:51:57.692Z,75.84
2022-12-08T11:54:32.858Z,76.55
2022-12-08T11:57:04.077Z,77.27
2022-12-08T11:59:46.333Z,77.07
2022-12-08T12:02:26.510Z,77.90
2022-12-08T12:06:03.358Z,78.09
2022-12-08T12:09:08.019Z,78.30
2022-12-08T12:12:19.379Z,78.67
2022-12-08T12:15:34.554Z,78.94
2022-12-08T12:18:40.344Z,79.97
2022-12-08T12:21:31.989Z,80.80
2022-12-08T12:24:10.951Z,80.39
2022-12-08T12:26:55.449Z,81.90
2022-12-08T12:29:28.650Z,82.65
2022-12-08T12:32:07.329Z,82.93
2022-12-08T12:34:43.690Z,83.74
2022-12-08T12:37:18.978Z,83.78
2022-12-08T12:40:02.270Z,83.95
2022-12-08T12:42:39.884Z,84.50
2022-12-08T12:45:21.959Z,84.03
2022-12-08T12:47:57.314Z,84.16
2022-12-08T12:50:34.023Z,84.92
2022-12-08T12:53:15.707Z,84.53
2022-12-08T12:55:46.521Z,85.44
2022-12-08T12:58:42.632Z,85.71
2022-12-08T13:01:13.031Z,84.87
2022-12-08T13:04:11.061Z,85.08
2022-12-08T13:06:50.596Z,85.51
2022-12-08T13:09:33.575Z,85.40
2022-12-08T13:12:12.671Z,84.95
2022-12-08T13:14:50.612Z,84.97
2022-12-08T13:17:28.813Z,85.32
2022-12-08T13:20:01.536Z,85.14
2022-12-08T13:22:47.058Z,85.30
2022-12-08T13:25:47.267Z,85.62
2022-12-08T13:28:27.591Z,85.69
2022-12-08T13:31:01.084Z,85.60
2022-12-08T13:33:33.462Z,85.71
2022-12-08T13:36:33.158Z,86.04
2022-12-08T13:39:04.835Z,85.17
2022-12-08T13:41:49.438Z,85.31
2022-12-08T13:47:34.467Z,86.59
2022-12-08T13:58:49.697Z,86.51
2022-12-08T14:01:22.536Z,86.90
2022-12-08T14:06:56.908Z,86.79
2022-12-08T14:09:29.184Z,87.46
2022-12-08T14:12:08.299Z,86.89
2022-12-08T14:15:02.410Z,86.44
2022-12-08T14:17:30.604Z,86.59
2022-12-08T14:20:12.579Z,86.81
2022-12-08T14:22:41.493Z,86.81
2022-12-08T14:25:15.861Z,87.13
2022-12-08T14:27:44.192Z,87.39
2022-12-08T14:30:14.739Z,87.20
2022-12-08T14:32:49.012Z,87.11
2022-12-08T14:35:32.315Z,87.04
2022-12-08T14:38:14.243Z,87.08
2022-12-08T14:40:48.088Z,87.15
2022-12-08T14:43:26.009Z,87.31
2022-12-08T14:46:01.590Z,87.17
2022-12-08T14:48:33.615Z,87.12
2022-12-08T14:51:03.888Z,87.45
2022-12-08T14:53:52.496Z,87.23
2022-12-08T14:56:51.922Z,87.38
2022-12-08T14:59:36.871Z,87.45
2022-12-08T15:02:16.081Z,87.63
2022-12-08T15:05:19.206Z,87.79
2022-12-08T15:08:02.613Z,87.77
2022-12-08T15:10:37.822Z,87.71
2022-12-08T15:13:09.852Z,87.99
2022-12-08T15:15:56.313Z,88.11
2022-12-08T15:18:40.833Z,88.07
2022-12-08T15:21:13.048Z,87.94
2022-12-08T15:23:45.635Z,87.98
2022-12-08T15:26:28.153Z,88.50
2022-12-08T15:28:55.853Z,88.40
2022-12-08T15:31:23.593Z,88.52
2022-12-08T15:33:52.110Z,88.79
2022-12-08T15:36:19.585Z,88.52
2022-12-08T15:38:46.773Z,88.62
2022-12-08T15:41:15.318Z,88.86
2022-12-08T15:43:42.791Z,88.70
2022-12-08T15:46:11.088Z,88.45
2022-12-08T15:48:38.520Z,88.54
2022-12-08T15:51:05.996Z,88.29
2022-12-08T15:53:33.157Z,88.20
2022-12-08T15:58:56.515Z,88.27
2022-12-08T16:01:26.239Z,88.40
2022-12-08T16:09:43.451Z,88.96
2022-12-08T16:18:28.830Z,88.98
2022-12-08T16:23:45.637Z,89.09
2022-12-08T16:27:01.210Z,89.49
2022-12-08T16:29:09.031Z,89.15
2022-12-08T16:31:37.417Z,89.18
2022-12-08T16:34:05.000Z,89.15
2022-12-08T16:36:32.255Z,89.60
2022-12-08T16:38:59.936Z,89.79
2022-12-08T16:41:45.642Z,89.65
2022-12-08T16:44:13.146Z,90.23
2022-12-08T16:46:40.643Z,89.82
2022-12-08T16:49:09.663Z,89.93
2022-12-08T16:51:36.993Z,89.79
2022-12-08T16:54:04.780Z,89.77
2022-12-08T16:56:33.389Z,89.47
2022-12-08T16:59:02.626Z,89.42
2022-12-08T17:01:31.418Z,89.33
2022-12-08T17:04:31.052Z,89.39
2022-12-08T17:06:47.113Z,89.31
2022-12-08T17:09:14.735Z,89.28
2022-12-08T17:11:43.714Z,89.62
2022-12-08T17:14:13.219Z,89.78
2022-12-08T17:16:41.384Z,89.89
2022-12-08T17:19:09.312Z,89.93
2022-12-08T17:21:36.631Z,89.69
2022-12-08T17:24:05.044Z,89.83
2022-12-08T17:26:32.492Z,90.23
2022-12-08T17:29:03.817Z,90.73
2022-12-08T17:31:33.233Z,90.43
2022-12-08T17:34:03.287Z,90.50
2022-12-08T17:36:31.104Z,90.89
2022-12-08T17:39:00.981Z,91.17
2022-12-08T17:41:29.740Z,91.04
2022-12-08T17:43:58.084Z,90.91
2022-12-08T17:46:25.467Z,90.85
2022-12-08T17:48:53.663Z,90.76
2022-12-08T17:51:21.277Z,91.02
2022-12-08T17:53:48.757Z,91.18
2022-12-08T17:56:21.701Z,91.03
2022-12-08T17:58:54.203Z,90.85
2022-12-08T18:01:23.985Z,90.88
2022-12-08T18:03:51.928Z,91.21
2022-12-08T18:06:19.433Z,91.32
2022-12-08T18:08:47.878Z,90.98
2022-12-08T18:11:19.209Z,90.87
2022-12-08T18:13:49.342Z,90.48
2022-12-08T18:16:20.153Z,90.41
2022-12-08T18:18:48.535Z,90.39
2022-12-08T18:21:23.030Z,90.28
2022-12-08T18:23:52.027Z,90.07
2022-12-08T18:26:20.639Z,90.10
2022-12-08T18:28:49.146Z,89.76
2022-12-08T18:31:20.844Z,89.77
2022-12-08T18:33:49.920Z,89.65
2022-12-08T18:36:22.681Z,89.75
2022-12-08T18:38:52.664Z,89.65
2022-12-08T18:41:26.083Z,89.43
2022-12-08T18:43:57.111Z,89.35
2022-12-08T18:46:25.795Z,89.37
2022-12-08T18:48:53.785Z,89.23
2022-12-08T18:51:24.240Z,89.12
2022-12-08T18:53:52.901Z,89.09
2022-12-08T18:56:30.103Z,89.23
2022-12-08T18:59:03.913Z,89.21
2022-12-08T19:01:37.522Z,89.18
2022-12-08T19:06:57.268Z,88.49
2022-12-08T19:09:27.016Z,88.52
2022-12-08T19:11:55.231Z,88.68
2022-12-08T19:14:27.908Z,88.72
2022-12-08T19:16:58.803Z,88.81
2022-12-08T19:19:29.367Z,88.74
2022-12-08T19:21:57.273Z,88.72
2022-12-08T19:24:25.888Z,88.67
2022-12-08T19:26:53.684Z,88.66
2022-12-08T19:29:21.256Z,88.59
2022-12-08T19:31:48.609Z,88.49
2022-12-08T19:34:16.288Z,88.28
2022-12-08T19:36:43.932Z,88.56
2022-12-08T19:39:37.141Z,88.57
2022-12-08T19:42:31.441Z,88.41
2022-12-08T19:45:04.758Z,88.46
2022-12-08T19:47:32.218Z,88.37
2022-12-08T19:50:20.084Z,88.26
2022-12-08T19:52:47.352Z,88.28
2022-12-08T19:55:14.894Z,88.33
2022-12-08T19:57:42.252Z,88.20
2022-12-08T20:00:13.080Z,88.21
2022-12-08T20:02:40.547Z,88.25
2022-12-08T20:05:09.799Z,88.10
2022-12-08T20:07:37.063Z,88.18
2022-12-08T20:10:09.847Z,88.11
2022-12-08T20:12:37.119Z,88.22
2022-12-08T20:15:05.230Z,88.12
2022-12-08T20:17:32.529Z,88.01
2022-12-08T20:20:05.323Z,88.22
2022-12-08T20:22:34.554Z,88.16
2022-12-08T20:25:03.121Z,88.18
2022-12-08T20:27:30.520Z,88.39
2022-12-08T20:29:58.005Z,88.40
2022-12-08T20:32:25.290Z,88.49
2022-12-08T20:34:52.846Z,88.21
2022-12-08T20:37:20.264Z,88.50
2022-12-08T20:39:47.766Z,88.52
2022-12-08T20:42:15.177Z,88.39
2022-12-08T20:44:44.504Z,88.45
2022-12-08T20:47:13.708Z,88.43
2022-12-08T20:49:41.489Z,88.63
2022-12-08T20:52:09.195Z,88.54
2022-12-08T20:54:38.132Z,88.59
2022-12-08T20:57:05.762Z,88.53
2022-12-08T20:59:33.694Z,88.48
2022-12-08T21:02:01.297Z,88.49
2022-12-08T21:04:29.391Z,88.31
2022-12-08T21:06:56.952Z,88.27
2022-12-08T21:09:24.789Z,88.25
2022-12-08T21:11:52.114Z,88.15
2022-12-08T21:14:19.703Z,88.01
2022-12-08T21:16:47.360Z,87.98
2022-12-08T21:19:15.463Z,87.82
2022-12-08T21:21:42.825Z,87.82
2022-12-08T21:24:10.966Z,87.72
2022-12-08T21:26:38.595Z,87.86
2022-12-08T21:29:06.359Z,87.98
2022-12-08T21:31:33.880Z,87.96
2022-12-08T21:34:02.840Z,88.31
2022-12-08T21:36:30.848Z,88.09
2022-12-08T21:39:01.075Z,87.87
2022-12-08T21:41:48.329Z,87.93
2022-12-08T21:44:20.520Z,87.97
2022-12-08T21:46:48.003Z,87.69
2022-12-08T21:49:17.007Z,87.96
2022-12-08T21:51:44.437Z,87.99
2022-12-08T21:54:18.206Z,87.99
2022-12-08T21:56:48.833Z,87.50
2022-12-08T21:59:18.168Z,87.36
2022-12-08T22:01:45.925Z,86.76
2022-12-08T22:04:18.814Z,86.75
2022-12-08T22:06:46.348Z,86.13
2022-12-08T22:09:15.576Z,85.68
2022-12-08T22:11:44.486Z,86.00
2022-12-08T22:14:15.095Z,85.71
2022-12-08T22:16:43.840Z,85.59
2022-12-08T22:19:12.706Z,85.49
2022-12-08T22:21:40.413Z,85.35
2022-12-08T22:24:08.661Z,85.43
2022-12-08T22:26:36.394Z,85.35
2022-12-08T22:29:04.213Z,85.13
2022-12-08T22:31:31.639Z,85.05
2022-12-08T22:34:00.166Z,84.92
2022-12-08T22:36:28.759Z,84.84
2022-12-08T22:38:57.093Z,85.19
2022-12-08T22:41:24.526Z,85.18
2022-12-08T22:43:52.320Z,85.12
2022-12-08T22:46:26.693Z,84.88
2022-12-08T22:48:59.335Z,84.85
2022-12-08T22:51:26.878Z,85.19
2022-12-08T22:53:54.452Z,84.93
2022-12-08T22:56:21.900Z,85.10
2022-12-08T22:58:49.901Z,84.60
2022-12-08T23:01:37.435Z,85.32
2022-12-08T23:04:05.287Z,85.08
2022-12-08T23:06:33.067Z,85.29
2022-12-08T23:09:00.826Z,85.58
2022-12-08T23:11:31.475Z,85.61
2022-12-08T23:14:03.044Z,85.77
2022-12-08T23:16:30.634Z,85.91
2022-12-08T23:18:59.671Z,86.37
2022-12-08T23:21:27.204Z,86.75
2022-12-08T23:23:54.837Z,87.10
2022-12-08T23:26:26.957Z,87.36
2022-12-08T23:28:57.317Z,87.75
2022-12-08T23:31:25.629Z,88.03
2022-12-08T23:33:55.074Z,88.63
2022-12-08T23:36:26.305Z,89.14
2022-12-08T23:38:55.006Z,88.76
2022-12-08T23:41:22.546Z,89.26
2022-12-08T23:43:52.433Z,89.47
2022-12-08T23:46:22.593Z,89.47
2022-12-08T23:48:51.507Z,89.45
2022-12-08T23:51:19.593Z,89.56
2022-12-08T23:53:47.891Z,89.98
2022-12-08T23:56:18.082Z,90.09
2022-12-08T23:58:46.492Z,89.85
